createdAt,value
2017-05-06T00:01:17.015Z,2.20
2017-05-06T00:03:44.875Z,4.56
2017-05-06T00:06:12.691Z,4.48
2017-05-06T00:08:40.590Z,4.20
2017-05-06T00:11:08.239Z,2.90
2017-05-06T00:13:35.713Z,5.67
2017-05-06T00:16:03.620Z,8.42
2017-05-06T00:18:31.463Z,7.02
2017-05-06T00:20:59.417Z,8.18
2017-05-06T00:23:27.452Z,5.02
2017-05-06T00:25:54.901Z,3.86
2017-05-06T00:28:22.691Z,3.33
2017-05-06T00:30:50.699Z,2.48
2017-05-06T00:33:18.170Z,2.62
2017-05-06T00:35:45.918Z,2.88
2017-05-06T00:38:13.357Z,2.74
2017-05-06T00:40:41.034Z,2.42
2017-05-06T00:43:08.846Z,2.82
2017-05-06T00:45:36.291Z,3.02
2017-05-06T00:48:03.816Z,2.50
2017-05-06T00:50:31.470Z,2.24
2017-05-06T00:52:58.906Z,3.48
2017-05-06T00:55:26.508Z,4.30
2017-05-06T00:57:54.345Z,3.27
2017-05-06T01:00:22.359Z,4.80
2017-05-06T01:02:50.120Z,4.47
2017-05-06T01:05:17.767Z,5.62
2017-05-06T01:07:45.310Z,7.17
2017-05-06T01:10:12.702Z,7.87
2017-05-06T01:12:40.482Z,7.28
2017-05-06T01:15:08.120Z,7.07
2017-05-06T01:17:35.661Z,7.13
2017-05-06T01:20:03.297Z,7.67
2017-05-06T01:22:30.549Z,7.88
2017-05-06T01:24:58.060Z,8.40
2017-05-06T01:27:25.515Z,8.20
2017-05-06T01:29:52.830Z,8.47
2017-05-06T01:32:20.245Z,8.83
2017-05-06T01:34:48.275Z,8.98
2017-05-06T01:37:15.871Z,9.58
2017-05-06T01:39:43.613Z,9.22
2017-05-06T01:42:11.246Z,10.08
2017-05-06T01:44:38.538Z,9.37
2017-05-06T01:47:06.072Z,9.20
2017-05-06T01:49:33.446Z,6.72
2017-05-06T01:52:01.176Z,7.67
2017-05-06T01:54:28.755Z,8.10
2017-05-06T01:56:56.588Z,8.55
2017-05-06T01:59:23.967Z,7.12
2017-05-06T02:01:51.698Z,5.62
2017-05-06T02:04:19.385Z,5.63
2017-05-06T02:06:46.822Z,6.98
2017-05-06T02:09:14.332Z,8.25
2017-05-06T02:11:41.617Z,7.27
2017-05-06T02:14:09.124Z,7.20
2017-05-06T02:16:36.618Z,8.10
2017-05-06T02:19:04.316Z,7.47
2017-05-06T02:21:31.996Z,6.67
2017-05-06T02:23:59.407Z,6.42
2017-05-06T02:26:26.726Z,8.23
2017-05-06T02:28:54.317Z,7.92
2017-05-06T02:31:22.539Z,7.82
2017-05-06T02:33:49.779Z,7.60
2017-05-06T02:36:17.026Z,8.82
2017-05-06T02:38:44.050Z,8.08
2017-05-06T02:41:11.172Z,7.98
2017-05-06T02:43:38.579Z,7.87
2017-05-06T02:46:05.753Z,8.57
2017-05-06T02:48:32.885Z,8.80
2017-05-06T02:51:00.011Z,3.32
2017-05-06T02:53:27.074Z,5.50
2017-05-06T02:55:54.132Z,5.82
2017-05-06T02:58:21.353Z,6.30
2017-05-06T03:00:48.608Z,7.58
2017-05-06T03:03:15.775Z,9.72
2017-05-06T03:05:42.814Z,9.02
2017-05-06T03:08:09.789Z,9.50
2017-05-06T03:10:36.833Z,6.93
2017-05-06T03:13:04.321Z,7.28
2017-05-06T03:15:31.799Z,4.93
2017-05-06T03:17:59.129Z,5.65
2017-05-06T03:20:26.599Z,5.40
2017-05-06T03:22:53.695Z,5.78
2017-05-06T03:25:20.853Z,5.37
2017-05-06T03:27:48.093Z,5.07
2017-05-06T03:30:15.469Z,4.48
2017-05-06T03:32:42.776Z,3.30
2017-05-06T03:35:09.981Z,3.67
2017-05-06T03:37:37.055Z,3.93
2017-05-06T03:40:04.377Z,3.33
2017-05-06T03:42:31.838Z,3.47
2017-05-06T03:44:59.198Z,3.42
2017-05-06T03:47:26.699Z,2.22
2017-05-06T03:49:54.358Z,2.47
2017-05-06T03:52:21.847Z,2.10
2017-05-06T03:54:49.144Z,2.43
2017-05-06T03:57:16.484Z,2.42
2017-05-06T03:59:43.615Z,1.93
2017-05-06T04:02:10.819Z,1.92
2017-05-06T04:04:38.222Z,3.18
2017-05-06T04:07:05.678Z,3.92
2017-05-06T04:09:33.123Z,4.42
2017-05-06T04:12:00.579Z,3.50
2017-05-06T04:14:27.313Z,4.87
2017-05-06T04:16:53.996Z,5.08
2017-05-06T04:19:20.683Z,5.75
2017-05-06T04:21:47.371Z,5.20
2017-05-06T04:24:14.045Z,5.72
2017-05-06T04:26:40.742Z,4.88
2017-05-06T04:29:07.419Z,4.87
2017-05-06T04:31:34.096Z,5.08
2017-05-06T04:34:00.804Z,5.83
2017-05-06T04:36:27.475Z,5.67
2017-05-06T04:38:54.144Z,5.77
2017-05-06T04:41:20.832Z,5.15
2017-05-06T04:43:47.521Z,5.07
2017-05-06T04:46:14.187Z,5.78
2017-05-06T04:48:40.875Z,6.17
2017-05-06T04:51:07.548Z,5.82
2017-05-06T04:53:34.216Z,6.18
2017-05-06T04:56:00.942Z,6.85
2017-05-06T04:58:27.613Z,6.08
2017-05-06T05:00:54.289Z,6.08
2017-05-06T05:03:21.462Z,6.43
2017-05-06T05:05:48.128Z,6.50
2017-05-06T05:08:14.817Z,6.20
2017-05-06T05:10:41.522Z,6.50
2017-05-06T05:13:08.202Z,6.35
2017-05-06T05:15:34.873Z,5.93
2017-05-06T05:18:01.601Z,6.58
2017-05-06T05:20:28.274Z,6.38
2017-05-06T05:22:54.953Z,6.00
2017-05-06T05:25:21.669Z,5.24
2017-05-06T05:27:48.334Z,5.62
2017-05-06T05:30:15.000Z,6.36
2017-05-06T05:32:41.688Z,5.16
2017-05-06T05:35:08.350Z,5.50
2017-05-06T05:37:35.012Z,5.54
2017-05-06T05:40:01.704Z,5.26
2017-05-06T05:42:28.366Z,5.50
2017-05-06T05:44:55.028Z,4.58
2017-05-06T05:47:21.730Z,5.52
2017-05-06T05:49:48.405Z,5.00
2017-05-06T05:52:16.925Z,4.64
2017-05-06T05:54:45.311Z,4.70
2017-05-06T05:57:13.282Z,5.42
2017-05-06T05:59:40.045Z,5.60
2017-05-06T06:02:07.777Z,4.94
2017-05-06T06:04:34.557Z,5.10
2017-05-06T06:07:01.225Z,5.28
2017-05-06T06:09:27.930Z,5.18
2017-05-06T06:11:54.593Z,5.06
2017-05-06T06:14:21.266Z,4.80
2017-05-06T06:16:47.972Z,4.80
2017-05-06T06:19:14.642Z,4.58
2017-05-06T06:21:41.326Z,3.76
2017-05-06T06:24:08.010Z,3.82
2017-05-06T06:26:34.682Z,4.78
2017-05-06T06:29:01.352Z,4.80
2017-05-06T06:31:28.042Z,4.68
2017-05-06T06:33:54.721Z,5.04
2017-05-06T06:36:21.394Z,4.72
2017-05-06T06:38:48.102Z,4.92
2017-05-06T06:41:14.776Z,4.40
2017-05-06T06:43:41.441Z,4.50
2017-05-06T06:46:08.153Z,4.00
2017-05-06T06:48:34.815Z,4.44
2017-05-06T06:51:01.488Z,3.90
2017-05-06T06:53:28.192Z,4.76
2017-05-06T06:55:54.865Z,4.42
2017-05-06T06:58:21.980Z,4.88
2017-05-06T07:00:48.685Z,5.08
2017-05-06T07:03:15.345Z,4.82
2017-05-06T07:05:42.029Z,4.42
2017-05-06T07:08:08.722Z,4.82
2017-05-06T07:10:35.410Z,4.92
2017-05-06T07:13:02.083Z,4.94
2017-05-06T07:15:28.778Z,5.16
2017-05-06T07:17:55.452Z,4.54
2017-05-06T07:20:22.114Z,5.58
2017-05-06T07:22:48.842Z,5.32
2017-05-06T07:25:15.510Z,4.82
2017-05-06T07:27:42.183Z,4.86
2017-05-06T07:30:09.865Z,4.48
2017-05-06T07:32:36.533Z,4.28
2017-05-06T07:35:03.222Z,4.42
2017-05-06T07:37:29.917Z,4.52
2017-05-06T07:39:56.597Z,4.50
2017-05-06T07:42:23.261Z,5.14
2017-05-06T07:44:49.944Z,5.18
2017-05-06T07:47:16.622Z,5.90
2017-05-06T07:49:43.284Z,5.60
2017-05-06T07:52:09.962Z,5.24
2017-05-06T07:54:36.633Z,4.90
2017-05-06T07:57:03.293Z,5.82
2017-05-06T07:59:30.173Z,5.22
2017-05-06T08:01:56.848Z,5.50
2017-05-06T08:04:24.153Z,4.54
2017-05-06T08:06:50.866Z,4.46
2017-05-06T08:09:17.587Z,4.70
2017-05-06T08:11:44.252Z,5.16
2017-05-06T08:14:10.982Z,4.32
2017-05-06T08:16:37.652Z,5.54
2017-05-06T08:19:04.347Z,5.28
2017-05-06T08:21:31.049Z,3.60
2017-05-06T08:23:57.720Z,3.00
2017-05-06T08:26:24.397Z,3.46
2017-05-06T08:28:51.304Z,3.52
2017-05-06T08:31:17.977Z,2.70
2017-05-06T08:33:44.634Z,2.32
2017-05-06T08:36:11.538Z,20.62
2017-05-06T08:38:38.201Z,6.58
2017-05-06T08:41:04.866Z,5.88
2017-05-06T08:43:31.566Z,2.34
2017-05-06T08:45:58.235Z,1.64
2017-05-06T08:48:24.919Z,1.74
2017-05-06T08:50:51.610Z,1.64
2017-05-06T08:53:18.294Z,1.48
2017-05-06T08:55:44.974Z,1.68
2017-05-06T08:58:11.689Z,2.22
2017-05-06T09:00:39.501Z,2.36
2017-05-06T09:03:06.180Z,2.26
2017-05-06T09:05:32.877Z,2.02
2017-05-06T09:07:59.548Z,1.60
2017-05-06T09:10:26.219Z,2.10
2017-05-06T09:12:52.909Z,1.68
2017-05-06T09:15:19.578Z,1.90
2017-05-06T09:17:46.246Z,1.68
2017-05-06T09:20:12.944Z,1.92
2017-05-06T09:22:39.604Z,2.18
2017-05-06T09:25:06.270Z,2.72
2017-05-06T09:27:32.969Z,2.80
2017-05-06T09:29:59.633Z,2.40
2017-05-06T09:32:26.442Z,2.20
2017-05-06T09:34:53.122Z,2.24
2017-05-06T09:37:19.792Z,1.84
2017-05-06T09:39:46.462Z,2.08
2017-05-06T09:42:13.143Z,2.00
2017-05-06T09:44:39.813Z,2.02
2017-05-06T09:47:06.584Z,2.04
2017-05-06T09:49:33.274Z,1.76
2017-05-06T09:51:59.957Z,1.74
2017-05-06T09:54:26.620Z,1.86
2017-05-06T09:56:53.406Z,2.34
2017-05-06T09:59:20.094Z,1.98
2017-05-06T10:01:46.766Z,2.22
2017-05-06T10:04:13.484Z,2.10
2017-05-06T10:06:40.143Z,2.06
2017-05-06T10:09:06.826Z,1.62
2017-05-06T10:11:33.530Z,1.72
2017-05-06T10:14:00.232Z,1.70
2017-05-06T10:16:26.897Z,1.68
2017-05-06T10:18:53.592Z,1.98
2017-05-06T10:21:20.253Z,1.90
2017-05-06T10:23:46.924Z,1.80
2017-05-06T10:26:13.693Z,1.34
2017-05-06T10:28:40.366Z,1.92
2017-05-06T10:31:07.101Z,2.62
2017-05-06T10:33:33.797Z,1.78
2017-05-06T10:36:00.469Z,1.66
2017-05-06T10:38:27.135Z,1.86
2017-05-06T10:40:54.117Z,1.66
2017-05-06T10:43:20.780Z,1.90
2017-05-06T10:45:47.516Z,1.56
2017-05-06T10:48:14.219Z,1.64
2017-05-06T10:50:40.890Z,1.54
2017-05-06T10:53:07.556Z,1.88
2017-05-06T10:55:34.240Z,1.74
2017-05-06T10:58:00.968Z,2.28
2017-05-06T11:00:27.629Z,2.06
2017-05-06T11:02:54.398Z,1.82
2017-05-06T11:05:21.101Z,1.90
2017-05-06T11:07:47.765Z,1.50
2017-05-06T11:10:14.642Z,1.70
2017-05-06T11:12:41.334Z,1.50
2017-05-06T11:15:07.998Z,1.28
2017-05-06T11:17:34.799Z,1.30
2017-05-06T11:20:01.465Z,1.70
2017-05-06T11:22:28.133Z,1.54
2017-05-06T11:24:54.818Z,1.70
2017-05-06T11:27:21.488Z,1.60
2017-05-06T11:29:48.221Z,2.04
2017-05-06T11:32:14.896Z,2.42
2017-05-06T11:34:41.558Z,2.32
2017-05-06T11:37:08.265Z,1.84
2017-05-06T11:39:34.949Z,1.82
2017-05-06T11:42:01.613Z,2.04
2017-05-06T11:44:28.283Z,1.90
2017-05-06T11:46:54.967Z,2.12
2017-05-06T11:49:21.702Z,2.04
2017-05-06T11:51:49.470Z,1.90
2017-05-06T11:54:17.267Z,1.98
2017-05-06T11:56:44.118Z,2.20
2017-05-06T11:59:11.177Z,2.02
2017-05-06T12:01:38.811Z,2.28
2017-05-06T12:04:06.145Z,1.88
2017-05-06T12:06:33.539Z,1.60
2017-05-06T12:09:01.161Z,1.78
2017-05-06T12:11:28.707Z,1.66
2017-05-06T12:13:56.068Z,1.68
2017-05-06T12:16:23.288Z,1.70
2017-05-06T12:18:50.547Z,1.82
2017-05-06T12:21:17.826Z,2.20
2017-05-06T12:23:45.221Z,2.12
2017-05-06T12:26:11.996Z,1.90
2017-05-06T12:28:38.772Z,2.46
2017-05-06T12:31:05.444Z,2.00
2017-05-06T12:33:32.586Z,1.88
2017-05-06T12:35:59.804Z,1.74
2017-05-06T12:38:27.053Z,1.64
2017-05-06T12:40:53.847Z,1.90
2017-05-06T12:43:21.057Z,1.78
2017-05-06T12:45:48.252Z,1.92
2017-05-06T12:48:16.396Z,1.88
2017-05-06T12:50:44.241Z,1.90
2017-05-06T12:53:12.413Z,1.60
2017-05-06T12:55:41.092Z,1.60
2017-05-06T12:58:08.758Z,1.72
2017-05-06T13:00:36.084Z,1.60
2017-05-06T13:03:03.361Z,1.90
2017-05-06T13:05:30.895Z,2.20
2017-05-06T13:07:58.819Z,2.10
2017-05-06T13:10:27.036Z,1.90
2017-05-06T13:12:55.048Z,2.56
2017-05-06T13:15:22.291Z,2.14
2017-05-06T13:17:49.471Z,2.26
2017-05-06T13:20:16.681Z,2.20
2017-05-06T13:22:44.323Z,2.04
2017-05-06T13:25:11.754Z,1.98
2017-05-06T13:27:38.513Z,2.60
2017-05-06T13:30:05.190Z,2.80
2017-05-06T13:32:31.852Z,2.66
2017-05-06T13:34:58.557Z,2.82
2017-05-06T13:37:25.233Z,2.28
2017-05-06T13:39:51.906Z,2.42
2017-05-06T13:42:18.601Z,2.50
2017-05-06T13:44:45.265Z,2.38
2017-05-06T13:47:11.929Z,2.36
2017-05-06T13:49:38.655Z,2.86
2017-05-06T13:52:05.322Z,2.70
2017-05-06T13:54:32.009Z,2.24
2017-05-06T13:56:58.694Z,2.40
2017-05-06T13:59:25.355Z,2.20
2017-05-06T14:01:52.037Z,2.60
2017-05-06T14:04:18.722Z,2.58
2017-05-06T14:06:45.401Z,2.64
2017-05-06T14:09:12.062Z,3.00
2017-05-06T14:11:38.741Z,2.88
2017-05-06T14:14:06.306Z,2.74
2017-05-06T14:16:34.071Z,2.90
2017-05-06T14:19:01.558Z,2.80
2017-05-06T14:21:29.417Z,2.72
2017-05-06T14:23:56.935Z,2.52
2017-05-06T14:26:24.819Z,2.80
2017-05-06T14:28:52.525Z,2.80
2017-05-06T14:31:20.247Z,2.84
2017-05-06T14:33:47.807Z,2.44
2017-05-06T14:36:15.171Z,3.06
2017-05-06T14:38:43.027Z,2.74
2017-05-06T14:41:10.759Z,3.30
2017-05-06T14:43:38.658Z,2.52
2017-05-06T14:46:06.213Z,2.80
2017-05-06T14:48:33.888Z,2.92
2017-05-06T14:51:01.917Z,2.90
2017-05-06T14:53:29.419Z,2.84
2017-05-06T14:55:57.358Z,2.62
2017-05-06T14:58:25.513Z,2.50
2017-05-06T15:00:53.471Z,2.50
2017-05-06T15:03:21.486Z,2.40
2017-05-06T15:05:50.178Z,2.20
2017-05-06T15:08:17.965Z,2.52
2017-05-06T15:10:45.984Z,2.56
2017-05-06T15:13:13.689Z,2.80
2017-05-06T15:15:41.294Z,3.10
2017-05-06T15:18:09.548Z,2.50
2017-05-06T15:20:37.199Z,2.23
2017-05-06T15:23:04.627Z,2.58
2017-05-06T15:25:32.492Z,2.48
2017-05-06T15:28:00.363Z,2.20
2017-05-06T15:30:28.500Z,2.50
2017-05-06T15:32:56.949Z,2.02
2017-05-06T15:35:24.681Z,2.02
2017-05-06T15:37:53.650Z,2.16
2017-05-06T15:40:21.534Z,2.16
2017-05-06T15:42:49.449Z,1.60
2017-05-06T15:45:16.208Z,1.96
2017-05-06T15:47:44.115Z,1.60
2017-05-06T15:50:12.387Z,1.80
2017-05-06T15:52:40.014Z,1.66
2017-05-06T15:55:07.671Z,1.54
2017-05-06T15:57:35.555Z,1.72
2017-05-06T16:00:03.485Z,1.92
2017-05-06T16:02:31.265Z,1.98
2017-05-06T16:04:59.381Z,1.48
2017-05-06T16:07:27.335Z,1.64
2017-05-06T16:09:55.012Z,1.36
2017-05-06T16:12:22.860Z,1.42
2017-05-06T16:14:49.756Z,4.12
2017-05-06T16:17:16.453Z,1.42
2017-05-06T16:19:43.165Z,1.70
2017-05-06T16:22:09.859Z,1.86
2017-05-06T16:24:36.569Z,1.64
2017-05-06T16:27:03.275Z,1.76
2017-05-06T16:29:29.984Z,1.72
2017-05-06T16:31:56.657Z,1.52
2017-05-06T16:34:23.350Z,1.58
2017-05-06T16:36:50.053Z,1.34
2017-05-06T16:39:17.441Z,1.20
2017-05-06T16:41:44.129Z,1.40
2017-05-06T16:44:10.912Z,1.40
2017-05-06T16:46:37.619Z,1.86
2017-05-06T16:49:04.309Z,1.30
2017-05-06T16:51:31.001Z,1.60
2017-05-06T16:53:59.049Z,1.66
2017-05-06T16:56:27.238Z,1.80
2017-05-06T16:58:55.549Z,2.00
2017-05-06T17:01:23.201Z,1.84
2017-05-06T17:03:50.574Z,2.12
2017-05-06T17:06:18.068Z,2.32
2017-05-06T17:08:45.473Z,2.14
2017-05-06T17:11:13.067Z,2.96
2017-05-06T17:13:41.828Z,2.36
2017-05-06T17:16:09.254Z,1.96
2017-05-06T17:18:36.870Z,1.96
2017-05-06T17:21:04.243Z,2.08
2017-05-06T17:23:31.555Z,2.12
2017-05-06T17:25:58.731Z,2.50
2017-05-06T17:28:26.059Z,3.48
2017-05-06T17:30:53.524Z,2.34
2017-05-06T17:33:20.724Z,3.42
2017-05-06T17:35:47.438Z,2.40
2017-05-06T17:38:14.116Z,3.04
2017-05-06T17:40:42.024Z,3.00
2017-05-06T17:43:10.385Z,2.50
2017-05-06T17:45:38.618Z,2.58
2017-05-06T17:48:06.686Z,2.48
2017-05-06T17:50:33.900Z,2.30
2017-05-06T17:53:00.640Z,2.38
2017-05-06T17:55:27.330Z,2.48
2017-05-06T17:57:54.038Z,2.70
2017-05-06T18:00:20.734Z,2.36
2017-05-06T18:02:47.439Z,2.26
2017-05-06T18:05:14.128Z,2.72
2017-05-06T18:07:40.869Z,2.86
2017-05-06T18:10:07.580Z,2.26
2017-05-06T18:12:34.305Z,2.02
2017-05-06T18:15:00.986Z,2.08
2017-05-06T18:17:28.543Z,2.50
2017-05-06T18:19:56.819Z,2.70
2017-05-06T18:22:23.621Z,2.82
2017-05-06T18:24:50.360Z,2.30
2017-05-06T18:27:17.106Z,2.16
2017-05-06T18:29:43.844Z,2.14
2017-05-06T18:32:10.842Z,2.42
2017-05-06T18:34:37.633Z,3.20
2017-05-06T18:37:04.407Z,3.14
2017-05-06T18:39:31.109Z,8.62
2017-05-06T18:41:57.882Z,11.46
2017-05-06T18:44:24.587Z,4.98
2017-05-06T18:46:51.289Z,3.24
2017-05-06T18:49:18.076Z,3.26
2017-05-06T18:51:44.817Z,2.78
2017-05-06T18:54:11.520Z,2.60
2017-05-06T18:56:38.216Z,2.88
2017-05-06T18:59:04.929Z,2.60
2017-05-06T19:01:31.877Z,3.12
2017-05-06T19:03:58.604Z,2.78
2017-05-06T19:06:25.289Z,2.52
2017-05-06T19:08:51.989Z,2.46
2017-05-06T19:11:18.749Z,4.12
2017-05-06T19:13:45.487Z,3.12
2017-05-06T19:16:12.215Z,2.72
2017-05-06T19:18:38.933Z,2.30
2017-05-06T19:21:05.839Z,3.04
2017-05-06T19:23:33.042Z,3.42
2017-05-06T19:26:01.381Z,2.98
2017-05-06T19:28:29.263Z,2.96
2017-05-06T19:30:56.994Z,2.40
2017-05-06T19:33:24.655Z,2.70
2017-05-06T19:35:52.758Z,2.50
2017-05-06T19:38:20.186Z,3.16
2017-05-06T19:40:47.435Z,2.62
2017-05-06T19:43:15.201Z,2.62
2017-05-06T19:45:42.015Z,2.70
2017-05-06T19:48:08.745Z,2.30
2017-05-06T19:50:35.469Z,2.44
2017-05-06T19:53:02.148Z,2.28
2017-05-06T19:55:28.885Z,2.28
2017-05-06T19:57:55.588Z,2.74
2017-05-06T20:00:22.495Z,2.60
2017-05-06T20:02:49.186Z,2.82
2017-05-06T20:05:15.870Z,2.60
2017-05-06T20:07:42.937Z,2.70
2017-05-06T20:10:09.666Z,3.88
2017-05-06T20:12:36.365Z,4.38
2017-05-06T20:15:03.089Z,2.64
2017-05-06T20:17:29.830Z,3.20
2017-05-06T20:19:56.510Z,2.30
2017-05-06T20:22:23.210Z,2.88
2017-05-06T20:24:49.897Z,2.98
2017-05-06T20:27:16.581Z,3.66
2017-05-06T20:29:43.265Z,3.00
2017-05-06T20:32:10.061Z,3.30
2017-05-06T20:34:36.960Z,3.26
2017-05-06T20:37:03.649Z,2.96
2017-05-06T20:39:30.328Z,2.94
2017-05-06T20:41:57.056Z,2.56
2017-05-06T20:44:23.764Z,2.90
2017-05-06T20:46:50.456Z,2.78
2017-05-06T20:49:17.246Z,2.98
2017-05-06T20:51:43.994Z,2.62
2017-05-06T20:54:10.732Z,2.70
2017-05-06T20:56:37.438Z,3.70
2017-05-06T20:59:04.135Z,2.92
2017-05-06T21:01:30.849Z,2.70
2017-05-06T21:03:57.534Z,2.60
2017-05-06T21:06:24.226Z,2.48
2017-05-06T21:08:50.901Z,2.76
2017-05-06T21:11:17.640Z,2.86
2017-05-06T21:13:44.346Z,2.68
2017-05-06T21:16:11.085Z,2.82
2017-05-06T21:18:37.985Z,2.72
2017-05-06T21:21:04.769Z,3.12
2017-05-06T21:23:31.454Z,2.84
2017-05-06T21:25:58.249Z,3.06
2017-05-06T21:28:24.941Z,2.64
2017-05-06T21:30:51.630Z,2.86
2017-05-06T21:33:18.524Z,3.12
2017-05-06T21:35:45.322Z,3.48
2017-05-06T21:38:12.052Z,3.60
2017-05-06T21:40:38.997Z,3.28
2017-05-06T21:43:05.790Z,3.50
2017-05-06T21:45:32.477Z,3.90
2017-05-06T21:47:59.155Z,3.62
2017-05-06T21:50:25.858Z,3.10
2017-05-06T21:52:52.546Z,3.13
2017-05-06T21:55:19.243Z,3.20
2017-05-06T21:57:45.954Z,3.74
2017-05-06T22:00:12.907Z,2.98
2017-05-06T22:02:39.662Z,3.20
2017-05-06T22:05:06.398Z,4.34
2017-05-06T22:07:33.135Z,3.92
2017-05-06T22:09:59.837Z,3.56
2017-05-06T22:12:26.533Z,3.68
2017-05-06T22:14:53.266Z,3.34
2017-05-06T22:17:19.953Z,3.26
2017-05-06T22:19:46.634Z,3.52
2017-05-06T22:22:13.324Z,3.10
2017-05-06T22:24:40.012Z,3.40
2017-05-06T22:27:06.706Z,3.08
2017-05-06T22:29:33.398Z,3.20
2017-05-06T22:32:00.080Z,3.30
2017-05-06T22:34:26.763Z,3.34
2017-05-06T22:36:53.449Z,3.44
2017-05-06T22:39:20.147Z,3.62
2017-05-06T22:41:47.836Z,3.44
2017-05-06T22:44:14.678Z,3.48
2017-05-06T22:46:41.384Z,3.60
2017-05-06T22:49:08.064Z,3.48
2017-05-06T22:51:34.753Z,3.76
2017-05-06T22:54:01.436Z,3.66
2017-05-06T22:56:28.262Z,3.10
2017-05-06T22:58:55.004Z,3.30
2017-05-06T23:01:21.769Z,3.14
2017-05-06T23:03:48.473Z,2.80
2017-05-06T23:06:15.177Z,2.68
2017-05-06T23:08:41.852Z,2.76
2017-05-06T23:11:08.580Z,3.28
2017-05-06T23:13:35.270Z,2.64
2017-05-06T23:16:01.968Z,2.92
2017-05-06T23:18:28.847Z,2.44
2017-05-06T23:20:55.548Z,3.16
2017-05-06T23:23:22.293Z,2.68
2017-05-06T23:25:48.979Z,3.00
2017-05-06T23:28:15.678Z,2.96
2017-05-06T23:30:42.459Z,3.08
2017-05-06T23:33:09.137Z,2.70
2017-05-06T23:35:35.833Z,2.94
2017-05-06T23:38:02.521Z,3.02
2017-05-06T23:40:29.215Z,2.84
2017-05-06T23:42:56.210Z,2.54
2017-05-06T23:45:23.107Z,2.74
2017-05-06T23:47:50.026Z,3.26
2017-05-06T23:50:16.738Z,3.08
2017-05-06T23:52:43.735Z,2.82
2017-05-06T23:55:10.515Z,2.98
2017-05-06T23:57:37.204Z,3.02
